createdAt,value
2023-06-13T00:05:23.096Z,85.9
2023-06-13T00:11:00.125Z,85.6
2023-06-13T00:16:35.785Z,85.8
2023-06-13T00:22:11.550Z,85.5
2023-06-13T00:27:50.047Z,85.3
2023-06-13T00:33:26.147Z,85
2023-06-13T00:39:02.777Z,85.2
2023-06-13T00:44:38.159Z,85.1
2023-06-13T00:50:15.304Z,85.1
2023-06-13T00:56:14.887Z,84.7
2023-06-13T01:01:48.266Z,85
2023-06-13T01:07:31.612Z,84.9
2023-06-13T01:13:07.313Z,85.2
2023-06-13T01:18:43.203Z,84.7
2023-06-13T01:24:19.304Z,84.8
2023-06-13T01:29:55.682Z,85.1
2023-06-13T01:35:31.009Z,85.2
2023-06-13T01:41:06.654Z,85.3
2023-06-13T01:46:42.063Z,85.1
2023-06-13T01:52:17.560Z,85.1
2023-06-13T01:57:54.111Z,85.4
2023-06-13T02:03:29.778Z,85.6
2023-06-13T02:09:07.483Z,85.4
2023-06-13T02:14:42.770Z,85.5
2023-06-13T02:20:20.405Z,85.7
2023-06-13T02:25:56.372Z,85.5
2023-06-13T02:31:33.471Z,85.7
2023-06-13T02:37:09.574Z,85.5
2023-06-13T02:42:45.839Z,85.6
2023-06-13T02:48:22.599Z,85.5
2023-06-13T02:54:23.008Z,85.5
2023-06-13T02:59:57.123Z,85.8
2023-06-13T03:05:32.339Z,86
2023-06-13T03:11:08.405Z,86.1
2023-06-13T03:16:44.938Z,86.4
2023-06-13T03:22:24.494Z,86.4
2023-06-13T03:28:01.857Z,86.2
2023-06-13T03:33:38.140Z,86.4
2023-06-13T03:39:14.102Z,86.3
2023-06-13T03:44:50.827Z,86.5
2023-06-13T03:50:26.845Z,86.4
2023-06-13T03:56:24.431Z,86.1
2023-06-13T04:01:58.068Z,86.5
2023-06-13T04:07:35.087Z,86.3
2023-06-13T04:13:11.820Z,86.2
2023-06-13T04:18:47.908Z,86.5
2023-06-13T04:24:24.605Z,86.6
2023-06-13T04:30:01.385Z,86.4
2023-06-13T04:35:37.374Z,87.5
2023-06-13T04:41:12.517Z,89.1
2023-06-13T04:46:49.046Z,89.8
2023-06-13T04:52:24.637Z,90.6
2023-06-13T04:57:59.970Z,90.1
2023-06-13T05:03:37.494Z,90.8
2023-06-13T05:09:40.385Z,90.8
2023-06-13T05:15:22.284Z,91
2023-06-13T05:21:06.890Z,92
2023-06-13T05:26:42.054Z,91.4
2023-06-13T05:32:18.114Z,90.4
2023-06-13T05:37:53.585Z,90.6
2023-06-13T05:43:30.026Z,90.9
2023-06-13T05:49:05.692Z,90.1
2023-06-13T05:55:04.064Z,89.3
2023-06-13T06:00:39.431Z,89.4
2023-06-13T06:06:16.103Z,89.4
2023-06-13T06:11:51.998Z,90.5
2023-06-13T06:17:27.501Z,89
2023-06-13T06:23:03.478Z,89.1
2023-06-13T06:28:38.811Z,88.9
2023-06-13T06:34:18.377Z,89.3
2023-06-13T06:39:56.959Z,89.4
2023-06-13T06:45:32.476Z,88.4
2023-06-13T06:51:08.290Z,85.6
2023-06-13T06:56:45.245Z,84
2023-06-13T07:02:21.912Z,84.9
2023-06-13T07:07:58.366Z,84.6
2023-06-13T07:13:33.805Z,84.2
2023-06-13T07:19:11.314Z,82.9
2023-06-13T07:24:47.275Z,84.7
2023-06-13T07:30:25.323Z,84.4
2023-06-13T07:36:09.421Z,84.4
2023-06-13T07:41:45.215Z,84.4
2023-06-13T07:47:21.373Z,82.4
2023-06-13T07:52:58.255Z,83.8
2023-06-13T07:58:34.050Z,83.1
2023-06-13T08:04:11.079Z,79.3
2023-06-13T08:09:50.573Z,79.9
2023-06-13T08:15:26.547Z,78.7
2023-06-13T08:21:02.668Z,77.1
2023-06-13T08:26:38.360Z,77.3
2023-06-13T08:32:14.400Z,75.8
2023-06-13T08:37:51.764Z,73
2023-06-13T08:43:28.788Z,74.3
2023-06-13T08:49:04.354Z,75.8
2023-06-13T08:55:31.854Z,74.2
2023-06-13T09:01:39.606Z,73.5
2023-06-13T09:07:16.173Z,69.5
2023-06-13T09:12:53.008Z,66.8
2023-06-13T09:18:28.759Z,70.8
2023-06-13T09:24:04.990Z,71.5
2023-06-13T09:29:48.841Z,69
2023-06-13T09:35:36.501Z,69.1
2023-06-13T09:41:13.933Z,68.4
2023-06-13T09:46:50.466Z,75.1
2023-06-13T09:52:27.188Z,77
2023-06-13T09:58:23.040Z,77
2023-06-13T10:04:09.611Z,73.6
2023-06-13T10:09:45.045Z,71.5
2023-06-13T10:15:21.752Z,74.4
2023-06-13T10:20:57.121Z,73.4
2023-06-13T10:26:32.679Z,76.5
2023-06-13T10:32:09.097Z,75
2023-06-13T10:37:52.519Z,75.6
2023-06-13T10:43:28.276Z,71.6
2023-06-13T10:49:09.938Z,71.3
2023-06-13T10:55:10.376Z,70.3
2023-06-13T11:00:43.631Z,68.5
2023-06-13T11:06:20.097Z,69.6
2023-06-13T11:11:58.652Z,75
2023-06-13T11:17:38.426Z,71.5
2023-06-13T11:23:14.778Z,71.9
2023-06-13T11:28:50.840Z,69.2
2023-06-13T11:34:26.637Z,70.6
2023-06-13T11:40:19.710Z,66.3
2023-06-13T11:45:57.720Z,67.5
2023-06-13T11:51:53.255Z,69.9
2023-06-13T11:57:30.025Z,65.6
2023-06-13T12:03:07.045Z,64.5
2023-06-13T12:08:43.347Z,68.1
2023-06-13T12:14:52.042Z,67
2023-06-13T12:20:46.093Z,64.3
2023-06-13T12:26:22.486Z,67.5
2023-06-13T12:31:58.075Z,66.1
2023-06-13T12:37:33.733Z,70.6
2023-06-13T12:43:11.655Z,70.3
2023-06-13T12:48:47.554Z,71.7
2023-06-13T12:54:51.312Z,71
2023-06-13T13:00:25.482Z,65.1
2023-06-13T13:06:01.107Z,62.1
2023-06-13T13:11:37.480Z,62.6
2023-06-13T13:17:14.427Z,62
2023-06-13T13:22:49.602Z,57.2
2023-06-13T13:28:48.113Z,58.4
2023-06-13T13:34:52.806Z,56.2
2023-06-13T13:40:48.567Z,53.7
2023-06-13T13:46:24.294Z,53.1
2023-06-13T13:52:00.425Z,48.9
2023-06-13T13:57:38.338Z,50.9
2023-06-13T14:03:13.864Z,46.3
2023-06-13T14:08:51.402Z,45.2
2023-06-13T14:14:36.730Z,53.2
2023-06-13T14:20:15.971Z,53.7
2023-06-13T14:25:54.085Z,54.9
2023-06-13T14:31:30.528Z,55
2023-06-13T14:37:07.485Z,53.7
2023-06-13T14:42:45.640Z,55.1
2023-06-13T14:48:20.893Z,55.2
2023-06-13T14:54:17.881Z,55
2023-06-13T14:59:50.867Z,56.2
2023-06-13T15:05:26.187Z,57.3
2023-06-13T15:11:02.026Z,60.7
2023-06-13T15:16:37.991Z,62.8
2023-06-13T15:22:14.951Z,63.1
2023-06-13T15:27:50.992Z,68.4
2023-06-13T15:33:28.441Z,72
2023-06-13T15:39:08.265Z,74
2023-06-13T15:44:45.765Z,73.7
2023-06-13T15:50:20.919Z,73.6
2023-06-13T15:56:17.914Z,74.4
2023-06-13T16:01:51.208Z,73.5
2023-06-13T16:07:26.022Z,77.6
2023-06-13T16:13:01.944Z,77
2023-06-13T16:18:58.241Z,79.5
2023-06-13T16:24:38.192Z,79.4
2023-06-13T16:30:33.423Z,76.4
2023-06-13T16:36:08.867Z,76.3
2023-06-13T16:41:48.205Z,77.9
2023-06-13T16:47:23.551Z,79.6
2023-06-13T16:53:00.099Z,80.8
2023-06-13T16:58:35.309Z,78.8
2023-06-13T17:04:10.900Z,78.1
2023-06-13T17:09:47.261Z,79
2023-06-13T17:15:23.239Z,77.7
2023-06-13T17:20:59.701Z,80.7
2023-06-13T17:26:35.094Z,81.2
2023-06-13T17:32:10.645Z,78.7
2023-06-13T17:37:46.876Z,80.2
2023-06-13T17:43:28.751Z,81.6
2023-06-13T17:49:09.842Z,82
2023-06-13T17:54:53.087Z,82.5
2023-06-13T18:00:30.268Z,84.1
2023-06-13T18:06:05.666Z,83.3
2023-06-13T18:11:41.644Z,84.8
2023-06-13T18:17:17.058Z,84.5
2023-06-13T18:22:52.933Z,85.8
2023-06-13T18:28:28.909Z,86.9
2023-06-13T18:34:05.360Z,86.1
2023-06-13T18:39:40.437Z,85.3
2023-06-13T18:45:16.584Z,85.5
2023-06-13T18:50:54.207Z,84.9
2023-06-13T18:56:51.780Z,87.1
2023-06-13T19:02:25.277Z,88.4
2023-06-13T19:08:24.216Z,88.8
2023-06-13T19:14:00.725Z,89.1
2023-06-13T19:19:36.764Z,88.3
2023-06-13T19:25:12.544Z,89
2023-06-13T19:30:50.355Z,88.9
2023-06-13T19:36:26.001Z,89.7
2023-06-13T19:42:01.857Z,89.8
2023-06-13T19:47:37.533Z,90.5
2023-06-13T19:53:13.877Z,90.8
2023-06-13T19:58:50.682Z,90.7
2023-06-13T20:04:26.668Z,90.1
